Time;durP1;ratioP1;P1;durP2;ratioP2;P2;SDS_P1;SDS_P2;PMS_P1;PMS_P2;Temp;Humidity;BMP_temperature;BMP_pressure;BME280_temperature;BME280_humidity;BME280_pressure;Samples;Min_cycle;Max_cycle;Signal;HPM_P1;HPM_P2
2023/07/15 00:00:18;;;;;;;;;;;19.90;99.90;;;;;;5106102;28;19970;-43
2023/07/15 00:02:45;;;;;;;;;;;19.90;99.90;;;;;;5117376;27;20007;-43
2023/07/15 00:05:16;;;;;;;;;;;19.90;99.90;;;;;;5071061;28;19970;-43
2023/07/15 00:07:43;;;;;;;;;;;19.90;99.90;;;;;;5091491;28;20245;-43
2023/07/15 00:10:10;;;;;;;;;;;19.90;99.90;;;;;;5085171;28;19981;-41
2023/07/15 00:12:36;;;;;;;;;;;19.90;99.90;;;;;;5076358;28;20364;-43
2023/07/15 00:15:05;;;;;;;;;;;19.90;99.90;;;;;;5077628;28;19932;-43
2023/07/15 00:17:32;;;;;;;;;;;19.90;99.90;;;;;;5070474;28;20018;-43
2023/07/15 00:19:58;;;;;;;;;;;19.90;99.90;;;;;;5072561;28;19978;-41
2023/07/15 00:22:25;;;;;;;;;;;19.90;99.90;;;;;;5077195;28;20281;-43
2023/07/15 00:24:52;;;;;;;;;;;19.90;99.90;;;;;;5079203;28;19936;-43
2023/07/15 00:27:18;;;;;;;;;;;19.90;99.90;;;;;;5063475;28;19990;-43
2023/07/15 00:29:45;;;;;;;;;;;19.90;99.90;;;;;;5070091;28;19924;-42
2023/07/15 00:32:17;;;;;;;;;;;19.90;99.90;;;;;;5070075;28;20628;-44
2023/07/15 00:34:44;;;;;;;;;;;19.90;99.90;;;;;;5061792;28;19985;-43
2023/07/15 00:37:11;;;;;;;;;;;19.90;99.90;;;;;;5072604;28;20287;-43
2023/07/15 00:39:40;;;;;;;;;;;19.80;99.90;;;;;;5070073;28;19925;-43
2023/07/15 00:42:09;;;;;;;;;;;19.90;99.90;;;;;;5065046;28;19976;-42
2023/07/15 00:44:35;;;;;;;;;;;19.90;99.90;;;;;;5070126;28;19971;-42
2023/07/15 00:47:21;;;;;;;;;;;19.90;99.90;;;;;;5092297;28;20386;-43
2023/07/15 00:49:48;;;;;;;;;;;19.90;99.90;;;;;;5053303;28;19924;-43
2023/07/15 00:52:15;;;;;;;;;;;19.90;99.90;;;;;;5066566;28;19924;-43
2023/07/15 00:54:42;;;;;;;;;;;19.90;99.90;;;;;;5059832;28;19987;-43
2023/07/15 00:57:09;;;;;;;;;;;19.90;99.90;;;;;;5072525;28;19990;-42
2023/07/15 00:59:36;;;;;;;;;;;19.90;99.90;;;;;;5064750;28;19931;-43
2023/07/15 01:02:03;;;;;;;;;;;19.90;99.80;;;;;;5071815;28;19982;-43
2023/07/15 01:04:31;;;;;;;;;;;20.00;99.70;;;;;;5055513;28;19979;-43
2023/07/15 01:06:57;;;;;;;;;;;19.90;99.60;;;;;;5088143;28;19934;-43
2023/07/15 01:09:25;;;;;;;;;;;20.00;99.70;;;;;;5066842;28;19929;-42
2023/07/15 01:11:51;;;;;;;;;;;19.90;99.60;;;;;;5061077;28;20016;-42
2023/07/15 01:14:18;;;;;;;;;;;20.00;99.50;;;;;;5071458;28;20382;-43
2023/07/15 01:16:47;;;;;;;;;;;20.00;99.40;;;;;;5073323;28;20376;-42
2023/07/15 01:19:14;;;;;;;;;;;20.00;99.50;;;;;;5073263;28;20304;-43
2023/07/15 01:21:42;;;;;;;;;;;20.00;99.40;;;;;;5074657;28;19924;-40
2023/07/15 01:24:11;;;;;;;;;;;20.00;99.20;;;;;;5051140;28;19925;-42
2023/07/15 01:26:37;;;;;;;;;;;20.00;99.20;;;;;;5094102;28;19924;-43
2023/07/15 01:29:04;;;;;;;;;;;20.00;99.00;;;;;;5071549;28;20255;-42
2023/07/15 01:31:31;;;;;;;;;;;20.10;98.90;;;;;;5106201;28;19924;-43
2023/07/15 01:33:58;;;;;;;;;;;20.10;98.90;;;;;;5067363;28;20380;-43
2023/07/15 01:36:25;;;;;;;;;;;20.10;98.60;;;;;;5066929;28;19947;-42
2023/07/15 01:38:52;;;;;;;;;;;20.20;98.70;;;;;;5067663;28;20003;-43
2023/07/15 01:41:20;;;;;;;;;;;20.20;98.60;;;;;;5080382;28;19932;-42
2023/07/15 01:43:46;;;;;;;;;;;20.20;98.50;;;;;;5064768;28;19932;-43
2023/07/15 01:46:13;;;;;;;;;;;20.20;98.30;;;;;;5071499;28;19929;-43
2023/07/15 01:48:40;;;;;;;;;;;20.20;98.30;;;;;;5077179;28;19924;-42
2023/07/15 01:51:06;;;;;;;;;;;20.20;98.20;;;;;;5078398;28;20426;-43
2023/07/15 01:53:33;;;;;;;;;;;20.20;98.10;;;;;;5104534;28;19994;-43
2023/07/15 01:56:00;;;;;;;;;;;20.20;98.10;;;;;;5070864;28;19932;-43
2023/07/15 01:58:28;;;;;;;;;;;20.20;98.00;;;;;;5082243;28;19977;-43
2023/07/15 02:00:54;;;;;;;;;;;20.20;97.90;;;;;;5072413;28;19975;-43
2023/07/15 02:03:21;;;;;;;;;;;20.30;97.80;;;;;;5069504;28;20296;-43
2023/07/15 02:05:48;;;;;;;;;;;20.30;97.60;;;;;;5056494;28;19978;-43
2023/07/15 02:08:15;;;;;;;;;;;20.40;97.60;;;;;;5069840;28;20300;-43
2023/07/15 02:10:41;;;;;;;;;;;20.30;97.50;;;;;;5073167;28;19973;-43
2023/07/15 02:13:09;;;;;;;;;;;20.30;97.40;;;;;;5070047;28;19932;-43
2023/07/15 02:15:37;;;;;;;;;;;20.30;97.30;;;;;;5062063;28;20018;-43
2023/07/15 02:18:04;;;;;;;;;;;20.30;97.30;;;;;;5062354;28;19960;-43
2023/07/15 02:20:30;;;;;;;;;;;20.30;97.30;;;;;;5086508;28;20289;-43
2023/07/15 02:22:57;;;;;;;;;;;20.30;97.20;;;;;;5072300;28;20442;-43
2023/07/15 02:25:24;;;;;;;;;;;20.30;97.30;;;;;;5070495;28;19925;-43
2023/07/15 02:27:51;;;;;;;;;;;20.30;97.30;;;;;;5066847;28;19928;-43
2023/07/15 02:30:19;;;;;;;;;;;20.30;97.30;;;;;;5067079;28;19950;-43
2023/07/15 02:32:47;;;;;;;;;;;20.30;97.20;;;;;;5071767;28;19974;-43
2023/07/15 02:35:15;;;;;;;;;;;20.30;97.20;;;;;;5103895;28;19963;-43
2023/07/15 02:37:42;;;;;;;;;;;20.30;97.10;;;;;;5075205;28;19924;-43
2023/07/15 02:40:10;;;;;;;;;;;20.30;97.10;;;;;;5057838;28;19925;-43
2023/07/15 02:42:36;;;;;;;;;;;20.30;97.00;;;;;;5069417;28;19980;-43
2023/07/15 02:45:04;;;;;;;;;;;20.30;97.00;;;;;;5069995;28;19925;-42
2023/07/15 02:47:31;;;;;;;;;;;20.20;96.90;;;;;;5076839;28;20015;-43
2023/07/15 02:50:01;;;;;;;;;;;20.20;96.90;;;;;;5067939;28;20356;-43
2023/07/15 02:52:27;;;;;;;;;;;20.20;96.90;;;;;;5070602;28;19924;-43
2023/07/15 02:54:54;;;;;;;;;;;20.20;96.90;;;;;;5068893;28;20334;-43
2023/07/15 02:57:21;;;;;;;;;;;20.10;96.90;;;;;;5085968;28;19928;-43
2023/07/15 02:59:49;;;;;;;;;;;20.10;96.80;;;;;;5082779;28;19924;-43
2023/07/15 03:02:16;;;;;;;;;;;20.10;96.80;;;;;;5070213;28;19935;-43
2023/07/15 03:04:42;;;;;;;;;;;20.10;96.80;;;;;;5069862;28;19967;-43
2023/07/15 03:07:12;;;;;;;;;;;20.10;96.60;;;;;;5064146;28;19931;-44
2023/07/15 03:09:39;;;;;;;;;;;20.10;96.40;;;;;;5068613;28;19932;-43
2023/07/15 03:12:06;;;;;;;;;;;20.10;96.50;;;;;;5102175;28;19928;-42
2023/07/15 03:14:32;;;;;;;;;;;20.20;96.40;;;;;;5070711;28;19929;-43
2023/07/15 03:16:59;;;;;;;;;;;20.10;96.40;;;;;;5076238;28;19924;-43
2023/07/15 03:19:26;;;;;;;;;;;20.10;96.40;;;;;;5051118;28;20386;-43
2023/07/15 03:21:53;;;;;;;;;;;20.10;96.20;;;;;;5064445;28;19932;-43
2023/07/15 03:24:22;;;;;;;;;;;20.10;96.30;;;;;;5067451;28;19925;-42
2023/07/15 03:26:49;;;;;;;;;;;20.10;96.20;;;;;;5071542;28;20368;-43
2023/07/15 03:29:16;;;;;;;;;;;20.10;96.10;;;;;;5112618;27;19932;-43
2023/07/15 03:31:42;;;;;;;;;;;20.10;96.10;;;;;;5061308;28;19924;-43
2023/07/15 03:34:09;;;;;;;;;;;20.10;96.10;;;;;;5095138;28;20364;-43
2023/07/15 03:36:36;;;;;;;;;;;20.10;96.10;;;;;;5076144;28;19924;-43
2023/07/15 03:39:02;;;;;;;;;;;20.00;96.10;;;;;;5118402;27;19955;-42
2023/07/15 03:41:30;;;;;;;;;;;20.00;96.10;;;;;;5072741;28;19928;-43
2023/07/15 03:43:57;;;;;;;;;;;20.00;96.10;;;;;;5077492;28;20379;-42
2023/07/15 03:46:24;;;;;;;;;;;20.00;96.20;;;;;;5063883;28;20326;-43
2023/07/15 03:48:51;;;;;;;;;;;20.00;96.20;;;;;;5073189;28;19951;-43
2023/07/15 03:51:17;;;;;;;;;;;19.90;96.30;;;;;;5078970;28;19932;-43
2023/07/15 03:53:44;;;;;;;;;;;19.90;96.20;;;;;;5082120;28;19925;-42
2023/07/15 03:56:11;;;;;;;;;;;19.90;96.10;;;;;;5073074;28;20014;-42
2023/07/15 03:58:39;;;;;;;;;;;19.90;96.20;;;;;;5074129;28;19928;-44
2023/07/15 04:01:06;;;;;;;;;;;19.90;96.20;;;;;;5105963;28;20352;-44
2023/07/15 04:03:32;;;;;;;;;;;19.80;96.20;;;;;;5072866;28;19929;-44
2023/07/15 04:05:59;;;;;;;;;;;19.80;96.20;;;;;;5075532;28;19925;-43
2023/07/15 04:08:26;;;;;;;;;;;19.80;96.30;;;;;;5072798;28;19935;-43
2023/07/15 04:10:53;;;;;;;;;;;19.80;96.30;;;;;;5074518;28;19929;-43
2023/07/15 04:13:19;;;;;;;;;;;19.80;96.40;;;;;;5071338;28;19924;-42
2023/07/15 04:15:47;;;;;;;;;;;19.80;96.40;;;;;;5077643;28;19932;-44
2023/07/15 04:18:16;;;;;;;;;;;19.80;96.40;;;;;;5062957;28;19928;-44
2023/07/15 04:20:43;;;;;;;;;;;19.80;96.40;;;;;;5061279;28;19924;-44
2023/07/15 04:23:10;;;;;;;;;;;19.80;96.30;;;;;;5072586;28;19932;-43
2023/07/15 04:25:37;;;;;;;;;;;19.80;96.60;;;;;;5054833;28;19928;-44
2023/07/15 04:28:03;;;;;;;;;;;19.80;96.60;;;;;;5072592;28;19931;-42
2023/07/15 04:30:30;;;;;;;;;;;19.70;96.60;;;;;;5072961;28;19998;-44
2023/07/15 04:32:58;;;;;;;;;;;19.70;96.80;;;;;;5119910;27;19925;-43
2023/07/15 04:35:25;;;;;;;;;;;19.80;96.80;;;;;;5071557;28;20015;-43
2023/07/15 04:37:52;;;;;;;;;;;19.80;97.00;;;;;;5074229;28;19925;-44
2023/07/15 04:40:19;;;;;;;;;;;19.80;96.90;;;;;;5072686;28;19928;-44
2023/07/15 04:42:46;;;;;;;;;;;19.80;97.00;;;;;;5072813;28;19978;-43
2023/07/15 04:45:12;;;;;;;;;;;19.80;97.10;;;;;;5077315;28;20431;-43
2023/07/15 04:47:39;;;;;;;;;;;19.80;97.00;;;;;;5088314;28;19986;-43
2023/07/15 04:50:07;;;;;;;;;;;19.80;97.10;;;;;;5106676;28;20327;-43
2023/07/15 04:52:34;;;;;;;;;;;19.80;97.00;;;;;;5054844;28;19925;-44
2023/07/15 04:55:01;;;;;;;;;;;19.80;97.20;;;;;;5063989;28;19984;-44
2023/07/15 04:57:27;;;;;;;;;;;19.80;97.10;;;;;;5071462;28;19924;-44
2023/07/15 04:59:54;;;;;;;;;;;19.80;97.40;;;;;;5085311;28;19991;-43
2023/07/15 05:02:22;;;;;;;;;;;19.80;97.50;;;;;;5071245;28;19928;-43
2023/07/15 05:04:49;;;;;;;;;;;19.80;97.60;;;;;;5061436;28;19925;-43
2023/07/15 05:07:17;;;;;;;;;;;19.90;97.20;;;;;;5054826;28;19925;-43
2023/07/15 05:09:44;;;;;;;;;;;19.90;97.40;;;;;;5060465;28;19926;-43
2023/07/15 05:12:11;;;;;;;;;;;19.90;97.30;;;;;;5092079;28;19935;-42
2023/07/15 05:14:38;;;;;;;;;;;19.90;97.30;;;;;;5071641;28;20004;-43
2023/07/15 05:17:06;;;;;;;;;;;19.90;97.70;;;;;;5071593;28;19932;-43
2023/07/15 05:19:32;;;;;;;;;;;20.00;97.90;;;;;;5078042;28;19929;-44
2023/07/15 05:21:59;;;;;;;;;;;20.10;97.60;;;;;;5071326;28;20329;-44
2023/07/15 05:24:28;;;;;;;;;;;20.20;97.70;;;;;;5073528;28;19930;-43
2023/07/15 05:26:55;;;;;;;;;;;20.20;97.70;;;;;;5108228;28;19928;-43
2023/07/15 05:29:22;;;;;;;;;;;20.30;97.60;;;;;;5056946;28;19998;-44
2023/07/15 05:31:49;;;;;;;;;;;20.40;97.80;;;;;;5067487;28;19963;-43
2023/07/15 05:34:16;;;;;;;;;;;20.40;97.50;;;;;;5083758;28;20015;-43
2023/07/15 05:36:42;;;;;;;;;;;20.40;97.50;;;;;;5070734;28;20450;-43
2023/07/15 05:39:09;;;;;;;;;;;20.50;97.60;;;;;;5077493;28;20326;-43
2023/07/15 05:41:37;;;;;;;;;;;20.50;97.70;;;;;;5074237;28;19931;-43
2023/07/15 05:44:04;;;;;;;;;;;20.70;97.90;;;;;;5058788;28;19924;-44
2023/07/15 05:46:30;;;;;;;;;;;20.80;97.60;;;;;;5058902;28;19993;-43
2023/07/15 05:48:58;;;;;;;;;;;20.90;97.60;;;;;;5072670;28;20430;-43
2023/07/15 05:51:25;;;;;;;;;;;21.00;97.50;;;;;;5073145;28;20034;-43
2023/07/15 05:53:52;;;;;;;;;;;21.10;97.60;;;;;;5071286;28;20021;-43
2023/07/15 05:56:18;;;;;;;;;;;21.20;97.60;;;;;;5074543;28;19931;-43
2023/07/15 05:58:46;;;;;;;;;;;21.30;97.50;;;;;;5082635;28;20346;-44
2023/07/15 06:01:13;;;;;;;;;;;21.40;97.30;;;;;;5067266;28;19924;-43
2023/07/15 06:03:40;;;;;;;;;;;21.50;97.10;;;;;;5060423;28;20376;-43
2023/07/15 06:06:07;;;;;;;;;;;21.70;97.10;;;;;;5070226;28;19981;-41
2023/07/15 06:08:33;;;;;;;;;;;21.80;97.10;;;;;;5071311;28;20372;-43
2023/07/15 06:11:00;;;;;;;;;;;21.90;97.10;;;;;;5077141;28;19924;-44
2023/07/15 06:13:27;;;;;;;;;;;22.00;97.20;;;;;;5081885;28;20419;-43
2023/07/15 06:15:55;;;;;;;;;;;22.10;97.20;;;;;;5076651;28;19931;-43
2023/07/15 06:18:21;;;;;;;;;;;22.30;97.20;;;;;;5081066;28;19955;-43
2023/07/15 06:20:48;;;;;;;;;;;22.40;97.20;;;;;;5078203;28;19924;-43
2023/07/15 06:23:15;;;;;;;;;;;22.50;96.90;;;;;;5073786;28;19931;-43
2023/07/15 06:25:42;;;;;;;;;;;22.60;96.80;;;;;;5072594;28;20311;-44
2023/07/15 06:28:08;;;;;;;;;;;22.60;96.40;;;;;;5071928;28;19925;-44
2023/07/15 06:30:35;;;;;;;;;;;22.70;96.60;;;;;;5076018;28;19955;-43
2023/07/15 06:33:03;;;;;;;;;;;22.80;96.60;;;;;;5103846;28;19932;-44
2023/07/15 06:35:30;;;;;;;;;;;22.90;96.80;;;;;;5054829;28;19925;-44
2023/07/15 06:37:57;;;;;;;;;;;22.90;96.80;;;;;;5064760;28;19977;-43
2023/07/15 06:40:23;;;;;;;;;;;23.10;96.70;;;;;;5085125;28;19924;-43
2023/07/15 06:42:50;;;;;;;;;;;23.20;96.60;;;;;;5074737;28;19931;-44
2023/07/15 06:45:19;;;;;;;;;;;23.20;96.70;;;;;;5075526;28;19924;-44
2023/07/15 06:47:45;;;;;;;;;;;23.40;96.60;;;;;;5089375;28;20295;-43
2023/07/15 06:50:13;;;;;;;;;;;23.40;96.30;;;;;;5081978;28;19973;-45
2023/07/15 06:52:40;;;;;;;;;;;23.50;96.30;;;;;;5082260;28;19978;-42
2023/07/15 06:55:07;;;;;;;;;;;23.50;96.10;;;;;;5077816;28;20339;-44
2023/07/15 06:57:34;;;;;;;;;;;23.60;96.20;;;;;;5079675;28;19958;-44
2023/07/15 07:00:00;;;;;;;;;;;23.60;96.20;;;;;;5082155;28;20387;-44
2023/07/15 07:02:27;;;;;;;;;;;23.70;95.80;;;;;;5082904;28;19936;-44
2023/07/15 07:04:54;;;;;;;;;;;23.80;95.80;;;;;;5072238;28;19954;-44
2023/07/15 07:07:23;;;;;;;;;;;23.90;95.40;;;;;;5084805;28;19963;-44
2023/07/15 07:09:50;;;;;;;;;;;24.00;95.90;;;;;;5073622;28;19925;-43
2023/07/15 07:12:16;;;;;;;;;;;24.10;95.80;;;;;;5071404;28;19928;-43
2023/07/15 07:14:43;;;;;;;;;;;24.10;95.90;;;;;;5085424;28;19944;-42
2023/07/15 07:17:10;;;;;;;;;;;24.20;95.70;;;;;;5072553;28;20304;-44
2023/07/15 07:19:36;;;;;;;;;;;24.20;95.90;;;;;;5061125;28;19928;-43
2023/07/15 07:22:03;;;;;;;;;;;24.30;96.20;;;;;;5075618;28;19961;-43
2023/07/15 07:24:31;;;;;;;;;;;24.30;96.10;;;;;;5069232;28;19935;-43
2023/07/15 07:26:58;;;;;;;;;;;24.50;96.10;;;;;;5065075;28;19994;-43
2023/07/15 07:29:25;;;;;;;;;;;24.50;96.10;;;;;;5056894;28;20321;-43
2023/07/15 07:31:52;;;;;;;;;;;24.60;96.30;;;;;;5103901;27;19924;-44
2023/07/15 07:34:19;;;;;;;;;;;24.60;96.30;;;;;;5071738;28;20319;-44
2023/07/15 07:36:46;;;;;;;;;;;24.70;96.20;;;;;;5073562;28;19968;-44
2023/07/15 07:39:13;;;;;;;;;;;24.80;96.10;;;;;;5072080;28;19981;-44
2023/07/15 07:41:41;;;;;;;;;;;24.80;96.10;;;;;;5077282;28;20020;-44
2023/07/15 07:44:09;;;;;;;;;;;24.90;95.90;;;;;;5083316;28;19983;-43
2023/07/15 07:46:35;;;;;;;;;;;25.00;96.00;;;;;;5085961;28;20031;-44
2023/07/15 07:49:02;;;;;;;;;;;25.10;95.90;;;;;;5081313;28;19931;-43
2023/07/15 07:51:29;;;;;;;;;;;25.20;95.80;;;;;;5078015;28;19928;-43
2023/07/15 07:53:55;;;;;;;;;;;25.40;96.00;;;;;;5081165;28;19925;-43
2023/07/15 07:56:23;;;;;;;;;;;25.60;96.00;;;;;;5054053;28;20333;-44
2023/07/15 07:58:54;;;;;;;;;;;25.80;95.50;;;;;;5109210;27;19932;-43
2023/07/15 08:01:21;;;;;;;;;;;26.00;95.60;;;;;;5067326;28;19947;-43
2023/07/15 08:03:48;;;;;;;;;;;26.20;95.00;;;;;;5081506;28;20376;-44
2023/07/15 08:06:14;;;;;;;;;;;26.20;94.40;;;;;;5081975;28;20379;-42
2023/07/15 08:08:41;;;;;;;;;;;26.20;94.60;;;;;;5084480;28;19928;-43
2023/07/15 08:11:08;;;;;;;;;;;26.20;94.80;;;;;;5071119;28;19924;-44
2023/07/15 08:13:34;;;;;;;;;;;26.30;94.70;;;;;;5083041;28;19936;-44
2023/07/15 08:16:03;;;;;;;;;;;26.40;94.60;;;;;;5101195;28;19924;-43
2023/07/15 08:18:29;;;;;;;;;;;26.50;94.40;;;;;;5077844;28;19924;-43
2023/07/15 08:20:56;;;;;;;;;;;26.50;94.40;;;;;;5077355;28;19924;-42
2023/07/15 08:23:23;;;;;;;;;;;26.50;94.60;;;;;;5078556;28;20300;-42
2023/07/15 08:25:49;;;;;;;;;;;26.60;94.50;;;;;;5070248;28;19928;-44
2023/07/15 08:28:16;;;;;;;;;;;26.60;93.90;;;;;;5062398;28;20473;-44
2023/07/15 08:30:42;;;;;;;;;;;26.60;94.20;;;;;;5065754;28;19925;-44
2023/07/15 08:33:11;;;;;;;;;;;26.80;94.10;;;;;;5064732;28;19983;-45
2023/07/15 08:35:37;;;;;;;;;;;26.90;93.80;;;;;;5065228;28;19925;-45
2023/07/15 08:38:04;;;;;;;;;;;26.90;93.80;;;;;;5063055;28;19963;-44
2023/07/15 08:40:31;;;;;;;;;;;27.10;93.90;;;;;;5064906;28;20369;-44
2023/07/15 08:42:57;;;;;;;;;;;27.20;94.00;;;;;;5054139;28;19929;-44
2023/07/15 08:45:24;;;;;;;;;;;27.30;93.90;;;;;;5079982;28;19977;-43
2023/07/15 08:47:51;;;;;;;;;;;27.50;94.00;;;;;;5098974;28;19932;-44
2023/07/15 08:50:19;;;;;;;;;;;27.70;93.90;;;;;;5113268;27;19981;-44
2023/07/15 08:52:45;;;;;;;;;;;27.90;93.50;;;;;;5064569;28;19971;-44
2023/07/15 08:55:12;;;;;;;;;;;27.90;93.20;;;;;;5067183;28;20388;-44
2023/07/15 08:57:39;;;;;;;;;;;27.90;93.30;;;;;;5066579;28;19932;-45
2023/07/15 09:00:09;;;;;;;;;;;27.90;93.20;;;;;;5059019;28;20414;-43
2023/07/15 09:02:37;;;;;;;;;;;27.90;93.30;;;;;;5055411;28;19933;-44
2023/07/15 09:05:05;;;;;;;;;;;28.00;92.90;;;;;;5061396;28;19994;-43
2023/07/15 09:07:33;;;;;;;;;;;28.10;92.80;;;;;;5088909;27;19935;-44
2023/07/15 09:10:05;;;;;;;;;;;28.10;92.30;;;;;;5060973;28;20005;-43
2023/07/15 09:12:31;;;;;;;;;;;28.00;92.00;;;;;;5055868;28;19959;-43
2023/07/15 09:16:11;;;;;;;;;;;28.00;92.30;;;;;;4989206;22;2001496;-43
2023/07/15 09:18:38;;;;;;;;;;;27.90;91.90;;;;;;5045848;28;19951;-42
2023/07/15 09:21:09;;;;;;;;;;;27.80;91.80;;;;;;5046776;28;19937;-43
2023/07/15 09:23:37;;;;;;;;;;;27.70;91.60;;;;;;5048491;28;19972;-43
2023/07/15 09:26:05;;;;;;;;;;;27.80;92.10;;;;;;5056748;28;19939;-43
2023/07/15 09:28:31;;;;;;;;;;;27.80;92.50;;;;;;5069761;28;19925;-42
2023/07/15 09:30:59;;;;;;;;;;;27.90;92.60;;;;;;5055994;28;19964;-42
2023/07/15 09:33:31;;;;;;;;;;;27.90;92.80;;;;;;5040905;28;19932;-42
2023/07/15 09:35:57;;;;;;;;;;;28.00;92.70;;;;;;5038748;28;19925;-42
2023/07/15 09:38:24;;;;;;;;;;;28.10;93.00;;;;;;5043179;28;19932;-43
2023/07/15 09:40:51;;;;;;;;;;;28.20;93.00;;;;;;5047482;28;19925;-43
2023/07/15 09:43:17;;;;;;;;;;;28.40;92.10;;;;;;5052257;28;19928;-43
2023/07/15 09:45:45;;;;;;;;;;;28.50;92.60;;;;;;5039256;28;20334;-42
2023/07/15 09:48:12;;;;;;;;;;;28.60;92.00;;;;;;5037133;28;19933;-42
2023/07/15 09:50:40;;;;;;;4.03;2.13;;;28.70;91.60;;;;;;5037405;28;21187;-43
2023/07/15 09:53:07;;;;;;;5.45;1.98;;;29.00;90.30;;;;;;5047228;28;20061;-42
2023/07/15 09:55:36;;;;;;;3.10;1.50;;;28.70;90.70;;;;;;5061200;28;20053;-42
2023/07/15 09:58:06;;;;;;;4.80;1.65;;;28.70;91.00;;;;;;5045615;28;20677;-43
2023/07/15 10:00:35;;;;;;;3.65;1.70;;;28.70;90.90;;;;;;5047292;28;20136;-43
2023/07/15 10:03:02;;;;;;;4.38;1.50;;;28.70;90.90;;;;;;5047013;28;20473;-42
2023/07/15 10:05:29;;;;;;;3.63;1.70;;;28.70;91.00;;;;;;5053859;28;20348;-42
2023/07/15 10:07:57;;;;;;;2.83;1.63;;;28.80;91.00;;;;;;5060200;28;20114;-42
2023/07/15 10:10:24;;;;;;;4.35;1.92;;;28.80;90.70;;;;;;5067586;28;20529;-43
2023/07/15 10:12:52;;;;;;;3.67;1.73;;;28.90;90.80;;;;;;5067663;28;20045;-43
2023/07/15 10:15:19;;;;;;;3.00;1.40;;;29.00;90.60;;;;;;5055398;28;20056;-43
2023/07/15 10:17:46;;;;;;;6.78;1.63;;;29.00;90.20;;;;;;5050030;28;20050;-42
2023/07/15 10:20:13;;;;;;;3.65;1.20;;;29.10;89.30;;;;;;5061361;28;20063;-43
2023/07/15 10:22:40;;;;;;;2.15;1.30;;;29.20;89.10;;;;;;5059359;28;20445;-43
2023/07/15 10:25:10;;;;;;;2.40;1.15;;;29.40;88.60;;;;;;5062160;28;20080;-42
2023/07/15 10:27:37;;;;;;;2.92;1.50;;;29.50;88.60;;;;;;5047585;28;20048;-42
2023/07/15 10:30:18;;;;;;;2.75;1.17;;;29.60;87.50;;;;;;5041941;28;20053;-42
2023/07/15 10:33:12;;;;;;;3.42;1.35;;;29.50;86.40;;;;;;5033407;28;20480;-42
2023/07/15 10:35:53;;;;;;;4.50;1.50;;;29.40;86.80;;;;;;5022136;28;20045;-43
2023/07/15 10:38:24;;;;;;;2.78;1.20;;;29.20;86.80;;;;;;5035956;28;20246;-43
2023/07/15 10:40:53;;;;;;;3.30;1.20;;;29.00;85.90;;;;;;5041568;28;20045;-43
2023/07/15 10:43:20;;;;;;;2.95;1.40;;;28.80;87.00;;;;;;5039232;28;20045;-43
2023/07/15 10:45:51;;;;;;;3.15;1.70;;;28.80;87.10;;;;;;5043416;28;20087;-42
2023/07/15 10:48:17;;;;;;;2.42;1.55;;;28.70;87.00;;;;;;5040930;28;20129;-42
2023/07/15 10:50:47;;;;;;;2.00;1.10;;;28.80;87.30;;;;;;5052623;28;20040;-43
2023/07/15 10:53:19;;;;;;;4.20;1.40;;;28.90;85.90;;;;;;5040558;28;20041;-43
2023/07/15 10:55:46;;;;;;;3.38;1.33;;;28.90;86.10;;;;;;5033724;28;20048;-42
2023/07/15 10:58:14;;;;;;;4.75;1.30;;;28.90;86.50;;;;;;5013631;28;20045;-43
2023/07/15 11:00:41;;;;;;;4.40;1.35;;;29.00;86.10;;;;;;5013391;28;20414;-43
2023/07/15 11:03:09;;;;;;;3.75;1.27;;;29.10;85.90;;;;;;5029344;28;20100;-43
2023/07/15 11:05:36;;;;;;;3.83;1.17;;;29.00;84.90;;;;;;5031734;28;20049;-42
2023/07/15 11:08:06;;;;;;;4.30;1.10;;;29.00;85.40;;;;;;5033382;28;20046;-42
2023/07/15 11:10:33;;;;;;;4.22;1.17;;;29.10;84.70;;;;;;5033015;28;20049;-43
2023/07/15 11:13:11;;;;;;;3.90;1.20;;;29.00;84.30;;;;;;5032070;28;20045;-43
2023/07/15 11:15:39;;;;;;;6.22;1.23;;;28.80;84.70;;;;;;5028541;28;20103;-43
2023/07/15 11:18:06;;;;;;;5.63;1.73;;;28.70;85.00;;;;;;5029708;28;20045;-43
2023/07/15 11:20:34;;;;;;;3.42;1.60;;;28.60;85.60;;;;;;5031733;28;20127;-43
2023/07/15 11:23:01;;;;;;;3.88;1.40;;;28.60;85.40;;;;;;5033635;28;20132;-42
2023/07/15 11:25:29;;;;;;;4.40;1.42;;;28.60;86.20;;;;;;5030618;28;20049;-43
2023/07/15 11:27:59;;;;;;;3.08;1.38;;;28.70;85.80;;;;;;5029065;28;20484;-42
2023/07/15 11:30:26;;;;;;;;;;;28.80;86.00;;;;;;5036403;28;20527;-43
2023/07/15 11:32:55;;;;;;;4.63;1.60;;;28.70;85.70;;;;;;5026461;28;19929;-43
2023/07/15 11:35:22;;;;;;;4.95;1.30;;;28.50;85.80;;;;;;5030103;28;20148;-42
2023/07/15 11:37:49;;;;;;;4.65;1.38;;;28.40;86.20;;;;;;5031633;28;20061;-43
2023/07/15 11:40:16;;;;;;;4.57;1.60;;;28.30;86.00;;;;;;5034041;28;20049;-42
2023/07/15 11:42:43;;;;;;;9.15;1.80;;;28.20;86.30;;;;;;5044961;28;20052;-42
2023/07/15 11:45:11;;;;;;;4.93;1.30;;;28.10;86.10;;;;;;5039490;28;20095;-41
2023/07/15 11:47:38;;;;;;;3.00;1.50;;;28.00;86.30;;;;;;5038317;28;20049;-43
2023/07/15 11:50:07;;;;;;;2.53;1.45;;;27.90;87.00;;;;;;5030774;28;20089;-43
2023/07/15 11:52:41;;;;;;;6.32;1.40;;;27.90;86.70;;;;;;5032105;28;20053;-42
2023/07/15 11:55:08;;;;;;;3.30;1.50;;;27.80;87.00;;;;;;5032918;28;20163;-43
2023/07/15 11:57:42;;;;;;;3.47;1.67;;;27.70;86.80;;;;;;5031660;28;20088;-43
2023/07/15 12:00:09;;;;;;;4.10;1.65;;;27.60;86.80;;;;;;5033870;28;20400;-43
2023/07/15 12:02:37;;;;;;;3.38;1.55;;;27.60;87.30;;;;;;5027025;28;20110;-43
2023/07/15 12:05:05;;;;;;;3.72;1.50;;;27.70;87.60;;;;;;5031809;28;20119;-43
2023/07/15 12:07:32;;;;;;;5.22;1.73;;;27.80;87.30;;;;;;5030681;28;20268;-43
2023/07/15 12:10:09;;;;;;;4.13;1.83;;;28.00;86.80;;;;;;5032981;28;20053;-43
2023/07/15 12:12:36;;;;;;;4.20;1.60;;;28.00;87.40;;;;;;5032428;28;20049;-43
2023/07/15 12:15:03;;;;;;;9.48;1.92;;;28.10;86.90;;;;;;5034186;28;20148;-43
2023/07/15 12:17:30;;;;;;;2.42;1.25;;;28.20;86.60;;;;;;5033374;28;20056;-43
2023/07/15 12:19:57;;;;;;;2.42;1.50;;;28.40;86.60;;;;;;5033906;28;20041;-42
2023/07/15 12:22:25;;;;;;;3.67;1.55;;;28.80;86.70;;;;;;5034005;28;20045;-43
2023/07/15 12:24:52;;;;;;;5.25;1.55;;;29.00;86.00;;;;;;5035913;28;20108;-43
2023/07/15 12:27:19;;;;;;;8.05;1.70;;;29.10;85.10;;;;;;5031276;28;20076;-43
2023/07/15 12:29:46;;;;;;;2.42;1.70;;;29.20;85.00;;;;;;5028202;28;20107;-42
2023/07/15 12:32:12;;;;;;;5.30;1.45;;;29.10;83.70;;;;;;5030493;28;20496;-43
2023/07/15 12:34:39;;;;;;;3.50;1.83;;;28.90;83.60;;;;;;5032294;28;20057;-43
2023/07/15 12:37:06;;;;;;;6.30;1.88;;;28.80;83.80;;;;;;5030059;28;20378;-42
2023/07/15 12:39:34;;;;;;;6.82;1.80;;;28.90;83.80;;;;;;5032268;28;20087;-42
2023/07/15 12:42:01;;;;;;;4.53;1.67;;;28.90;83.80;;;;;;5031366;28;20049;-43
2023/07/15 12:44:28;;;;;;;2.90;1.30;;;28.90;83.80;;;;;;5030668;28;20045;-42
2023/07/15 12:46:55;;;;;;;6.57;1.70;;;28.90;83.60;;;;;;5029635;28;20493;-43
2023/07/15 12:49:22;;;;;;;5.47;2.00;;;28.80;83.50;;;;;;5030890;28;20049;-43
2023/07/15 12:51:48;;;;;;;4.90;1.75;;;28.80;83.20;;;;;;5030363;28;20049;-43
2023/07/15 12:54:15;;;;;;;5.40;1.65;;;28.70;83.10;;;;;;5030949;28;20408;-43
2023/07/15 12:56:44;;;;;;;3.17;1.50;;;28.70;82.50;;;;;;5031153;28;20403;-43
2023/07/15 12:59:10;;;;;;;4.93;1.67;;;28.80;81.90;;;;;;5031395;28;20052;-43
2023/07/15 13:01:37;;;;;;;5.22;1.50;;;28.90;81.90;;;;;;5030684;28;20107;-41
2023/07/15 13:04:04;;;;;;;2.17;1.42;;;29.00;81.70;;;;;;5029208;28;20095;-43
2023/07/15 13:06:31;;;;;;;2.70;1.42;;;29.10;80.90;;;;;;5031348;28;20111;-43
2023/07/15 13:08:58;;;;;;;4.68;1.67;;;29.10;80.40;;;;;;5028418;28;20049;-42
2023/07/15 13:11:25;;;;;;;2.92;1.52;;;29.10;79.70;;;;;;5031828;28;20397;-43
2023/07/15 13:13:53;;;;;;;5.32;1.73;;;28.90;78.90;;;;;;5030987;28;20049;-43
2023/07/15 13:16:20;;;;;;;2.88;1.40;;;28.90;78.90;;;;;;5027903;28;20049;-42
2023/07/15 13:18:47;;;;;;;3.50;1.25;;;29.10;78.00;;;;;;5035455;28;20049;-42
2023/07/15 13:21:14;;;;;;;4.80;1.67;;;29.10;78.20;;;;;;5032942;28;20061;-43
2023/07/15 13:23:40;;;;;;;5.55;1.55;;;29.20;77.50;;;;;;5033462;28;20044;-43
2023/07/15 13:26:07;;;;;;;3.10;1.52;;;29.30;77.30;;;;;;5035622;28;20053;-43
2023/07/15 13:28:34;;;;;;;6.75;1.85;;;29.30;77.30;;;;;;5034400;28;20049;-43
2023/07/15 13:31:03;;;;;;;5.35;1.50;;;29.40;76.90;;;;;;5031680;28;20049;-43
2023/07/15 13:33:29;;;;;;;6.25;1.50;;;29.60;76.60;;;;;;5033531;28;20045;-43
2023/07/15 13:35:56;;;;;;;4.95;1.70;;;29.70;75.70;;;;;;5038610;28;20045;-42
2023/07/15 13:38:24;;;;;;;3.80;1.60;;;29.80;74.90;;;;;;5038922;28;20050;-41
2023/07/15 13:40:51;;;;;;;3.10;1.50;;;29.80;75.20;;;;;;5033068;28;20041;-43
2023/07/15 13:43:18;;;;;;;5.57;1.70;;;30.10;75.30;;;;;;5034711;28;20500;-43
2023/07/15 13:45:46;;;;;;;3.25;1.52;;;30.30;75.10;;;;;;5037655;28;20401;-44
2023/07/15 13:48:14;;;;;;;7.13;1.83;;;30.50;74.80;;;;;;5043799;28;20049;-42
2023/07/15 13:50:41;;;;;;;6.10;1.63;;;30.70;73.00;;;;;;5030526;28;20075;-42